Ride Results

Woky Creek (08-09-2007)
Ride distance: 80.0 km

Outcomes - Woky Creek (08-09-2007)
Division No. of Entries Retired / DNE Completed Withdrawn Ineligible V/O Percentage Completed
HW 14 - 12 - - 2 85.71%
MW 26 - 24 1 - 1 92.31%
LW 11 - 9 1 - 1 81.82%
JN 3 - 1 - - 2 33.33%
Totals 54 - 46 2 - 6 85.19%
Results - Woky Creek (08-09-2007)
No. Rider Horse Place Time Leg Speeds Total
Km/Hr
H/R bpm
Heavyweight
38 Baz O'Driscoll Hillbrae Harry 1 6:01:00 14.9, 11.9 13.30 36, 42, 48 (Avg:45)
33 Otto Van Kampen Arabika Pinelli 1 6:01:00 14.7, 12.1 13.30 41, 47, 58 (Avg:52)
24 Marcel Fortsch Rupert 3 6:05:00 15.1, 11.5 13.15 38, 44, 60 (Avg:52)
47 Ellen Lilly Kindred Masquerade 4 (BC) 6:14:00 15.5, 10.9 12.83 30, 38, 43 (Avg:40)
37 Ray Morley Just Oliver 4 6:14:00 13.1, 12.4 12.83 39, 41, 48 (Avg:44)
4 Natasha Ellery Sundale Neptune 6 6:30:00 14.2, 10.8 12.31 32, 39, 43 (Avg:41)
44 Lyn Lucas Sir James 7 6:53:00 11.7, 11.5 11.62 38, 47, 57 (Avg:52)
50 Fred Webb Jahi Adar 8 7:30:00 13.5, 8.7 10.67 38, 47, 58 (Avg:52)
13 Ross McCamish Tanderra Muskorina 9 7:31:00 12.0, 9.5 10.64 44, 48, 48 (Avg:48)
35 Liz Cullam Thowra Park Cadellac 10 7:51:00 10.9, 9.5 10.19 39, 41, 47 (Avg:44)
2 Deb Ryan Forestdew Karisma 11 8:00:00 10.4, 9.5 10.00 36, 47, 60 (Avg:53)
R6 Craig Hugall Sabtah Saiani 12 8:16:00 11.7, 8.2 9.68 48, 40, 46 (Avg:43)
52 Patrick Burns Amir Shockaar Heart Rate L1 0:00:00 15.4 - 30, 62 (Avg:62)
55 Julie Thomas Chatahn Kalim Lame P/R 0:00:00 - - 34
Middleweight
16 Joanna McCord Amakhaya Gijima 1 5:28:00 16.6, 13.0 14.63 34, 41, 54 (Avg:47)
15 Ken Hobday Ted 2 5:53:00 15.5, 12.0 13.60 42, 49, 50 (Avg:49)
22 Frances Overheu Poseidon Moon 2 (BC) 5:53:00 14.9, 12.4 13.60 36, 39, 42 (Avg:40)
41 Jo Pearson Gameelah 4 6:15:00 14.9, 11.2 12.80 36, 41, 48 (Avg:44)
53 Garry Hutchins Endurowest Kumari 5 6:17:00 14.2, 11.5 12.73 30, 44, 46 (Avg:45)
14 Bruce Scott Dinewani Limited Edition 6 6:29:00 14.0, 11.0 12.34 31, 39, 47 (Avg:43)
19 Paul Willmott Allazar 6 6:29:00 14.3, 10.8 12.34 38, 45, 51 (Avg:48)
10 Linda Yearbury Tiki Bey 6 6:29:00 14.0, 11.0 12.34 44, 43, 50 (Avg:46)
40 Anton Reid Tora Jem 9 6:50:00 11.9, 11.4 11.71 32, 42, 47 (Avg:44)
45 Luke Annetts Assiff 10 6:53:00 11.7, 11.5 11.62 38, 39, 48 (Avg:43)
R7 Rebecca Wicks Rhondarosa's A'zarr 11 6:55:00 13.1, 10.3 11.57 36, 41, 47 (Avg:44)
59 Megan Yearbury Rhondarosa's Just That 11 6:55:00 13.1, 10.3 11.57 57, 38, 42 (Avg:40)
51 Kelly Marks Jejucha Djessika 13 6:56:00 13.0, 10.3 11.54 35, 45, 56 (Avg:50)
18 Janet Cameron Ibrisam 14 7:10:00 13.0, 9.7 11.16 42, 48, 56 (Avg:52)
11 Sarah Dumbrell Waterford Stud's Zoom 15 7:11:00 13.9, 9.2 11.14 39, 39, 47 (Avg:43)
9 Tania Foster Shintaar 16 7:20:00 12.0, 9.9 10.91 33, 40, 46 (Avg:43)
12 Jenny McCamish Melara Najma 17 7:31:00 14.9, 8.2 10.64 34, 43, 39 (Avg:41)
30 Cassie Mulcahy Top Fancy Chacassi 18 7:33:00 12.2, 9.3 10.60 38, 55, 47 (Avg:51)
54 Stephen French Workhorse High Society 19 7:38:00 10.9, 10.0 10.48 42, 47, 48 (Avg:47)
36 Carrie Meyers Mariba Moontrip 20 7:51:00 10.9, 9.5 10.19 40, 39, 36 (Avg:37)
1 Noels Cochrane Deep Forest Nahamani 21 8:05:00 11.9, 8.4 9.90 31, 40, 43 (Avg:41)
5 Simon Slemint Ralvon Jordan 21 8:05:00 11.9, 8.4 9.90 30, 36, 39 (Avg:37)
26 Richard Summerfield Mantuka Lea 23 8:13:00 10.2, 9.3 9.74 37, 39, 46 (Avg:42)
42 Marianne Schofield Kainui Park Bint Kazareh 24 8:26:00 9.3, 9.5 9.49 32, 40, 55 (Avg:47)
8 Michelle Blight Beau Moss Lame L2 0:00:00 12.0, 11.8 - 33, 38, 48 (Avg:43)
48 Christine Maroni Starwyn Amber Mist Withdrawn L1 0:00:00 - - 35, 49 (Avg:49)
Lightweight
23 Kerryn Willing Jemeela Park Alira 1 (BC) 5:28:00 16.1, 13.4 14.63 37, 47, 46 (Avg:46)
3 Sue House Noran Camryy 2 6:29:00 14.0, 11.0 12.34 36, 41, 48 (Avg:44)
46 Paula Davenport Deep Forest Nodin 3 6:33:00 13.9, 10.8 12.21 34, 51, 52 (Avg:51)
43 Heather Hawkins Rivlyn Chelsea 4 6:50:00 13.2, 10.4 11.71 37, 39, 42 (Avg:40)
39 Lynn Rodgers Hayla Shayla 4 6:50:00 13.3, 10.4 11.71 32, 39, 49 (Avg:44)
29 Liz Mulcahy Tanderra Saphire 6 7:33:00 12.2, 9.3 10.60 38, 41, 56 (Avg:48)
25 Kym Crook Angabal Miracle 7 8:13:00 10.2, 9.3 9.74 33, 34, 42 (Avg:38)
28 Jamie Linthorne Tazsh Kamil Lea 7 8:13:00 10.2, 9.3 9.74 39, 45, 49 (Avg:47)
27 Lyn Summerfield Orchid Park Silver Mecca 7 8:13:00 10.2, 9.3 9.74 38, 39, 42 (Avg:40)
57 Mel Atwell Hillain Naarella Lame L2 0:00:00 13.1, 9.6 - 35, 36, 52 (Avg:44)
58 Amanda Rayner Wongamine Withdrawn L1 0:00:00 - - 38, 41 (Avg:41)
Junior
56 Jacinta Thomas Arovo Mini Harvest 1 (BC) 6:17:00 14.7, 11.2 12.73 30, 42, 52 (Avg:47)
49 Shannan Foster Kargre Naadan Metabolics L2 0:00:00 13.5, 8.6 - 37, 44, 42 (Avg:43)
34 Astrid Van Kampen El Sherran Ricadonna Lame L1 0:00:00 14.7 - 38, 44 (Avg:44)